Time;durP1;ratioP1;P1;durP2;ratioP2;P2;SDS_P1;SDS_P2;PMS_P1;PMS_P2;Temp;Humidity;BMP_temperature;BMP_pressure;BME280_temperature;BME280_humidity;BME280_pressure;Samples;Min_cycle;Max_cycle;Signal;HPM_P1;HPM_P2
2022/02/10 00:04:12;;;;;;;15.05;8.48;;;;;;;7.87;70.95;101018.50;8486008;33;20184;-74
2022/02/10 00:14:57;;;;;;;15.60;8.75;;;;;;;7.91;70.86;101017.34;8488539;33;20258;-74
2022/02/10 00:20:14;;;;;;;14.70;8.15;;;;;;;7.79;71.59;101012.75;8488153;33;20494;-74
2022/02/10 00:26:04;;;;;;;14.63;8.63;;;;;;;7.82;71.17;101004.53;8487373;33;20437;-74
2022/02/10 00:36:24;;;;;;;15.32;8.25;;;;;;;7.84;71.00;101007.09;8486105;33;20160;-73
2022/02/10 00:41:27;;;;;;;16.00;7.55;;;;;;;7.71;71.51;100993.63;8486541;33;20405;-74
2022/02/10 00:46:30;;;;;;;17.63;9.23;;;;;;;7.87;71.45;100986.41;8486882;33;20545;-74
2022/02/10 00:51:35;;;;;;;14.30;7.85;;;;;;;7.85;71.29;100977.59;8486336;33;21033;-75
2022/02/10 00:56:38;;;;;;;18.60;8.98;;;;;;;7.86;70.89;100973.97;8485626;33;20227;-74
2022/02/10 01:07:07;;;;;;;16.33;9.43;;;;;;;7.62;70.86;100973.59;8484136;33;20148;-75
2022/02/10 01:12:30;;;;;;;15.07;9.32;;;;;;;7.76;70.71;100964.75;8482257;33;20137;-75
2022/02/10 01:33:41;;;;;;;12.50;8.05;;;;;;;7.71;70.03;100918.75;8425586;33;20476;-74
2022/02/10 01:38:46;;;;;;;13.48;8.13;;;;;;;7.73;70.37;100917.69;8485987;33;20481;-74
2022/02/10 02:05:23;;;;;;;10.98;6.82;;;;;;;7.42;70.94;100867.88;8487379;33;20447;-74
2022/02/10 02:10:28;;;;;;;12.95;7.38;;;;;;;7.41;70.95;100860.81;8487769;33;20443;-73
2022/02/10 02:15:31;;;;;;;12.23;7.38;;;;;;;7.39;70.97;100859.19;8486601;33;20202;-74
2022/02/10 02:20:36;;;;;;;13.15;6.45;;;;;;;7.40;70.92;100850.19;8488200;33;20612;-75
2022/02/10 02:25:40;;;;;;;12.10;7.10;;;;;;;7.31;70.72;100846.28;8489796;33;20184;-74
2022/02/10 02:30:47;;;;;;;10.20;6.78;;;;;;;7.37;70.59;100845.03;8489496;33;20440;-74
2022/02/10 02:36:19;;;;;;;10.98;6.85;;;;;;;7.45;70.36;100846.28;8483469;33;20420;-75
2022/02/10 03:08:14;;;;;;;10.32;6.53;;;;;;;7.47;70.09;100790.94;8432667;34;20321;-76
2022/02/10 03:13:24;;;;;;;14.05;6.80;;;;;;;7.47;70.22;100785.59;8433636;33;21045;-72
2022/02/10 03:18:38;;;;;;;11.55;6.93;;;;;;;7.48;70.03;100781.94;8438689;34;20962;-74
2022/02/10 04:12:31;;;;;;;13.83;8.23;;;;;;;7.31;70.70;100723.34;8480012;33;20409;-76
2022/02/10 04:17:50;;;;;;;15.52;8.77;;;;;;;7.34;70.63;100708.94;8484334;33;20454;-75
2022/02/10 04:23:05;;;;;;;13.48;8.10;;;;;;;7.35;70.89;100703.50;8485827;33;20407;-75
2022/02/10 04:28:24;;;;;;;13.32;7.68;;;;;;;7.09;71.16;100698.91;8489988;33;20282;-74
2022/02/10 04:45:30;;;;;;;14.05;8.93;;;;;;;7.36;70.85;100680.31;8332303;33;20715;-74
2022/02/10 04:56:08;;;;;;;19.15;9.80;;;;;;;7.25;70.96;100686.31;8310978;34;20368;-74
2022/02/10 05:01:25;;;;;;;14.73;9.10;;;;;;;7.22;71.25;100681.16;8429202;33;20488;-74
2022/02/10 05:07:03;;;;;;;16.85;9.57;;;;;;;7.17;71.59;100680.59;8483578;33;20699;-74
2022/02/10 05:17:43;;;;;;;20.43;10.90;;;;;;;7.19;71.28;100676.88;8487165;33;20589;-75
2022/02/10 05:23:03;;;;;;;19.80;10.10;;;;;;;7.20;71.36;100670.56;8488931;33;20202;-75
2022/02/10 05:33:44;;;;;;;18.80;10.07;;;;;;;6.89;72.20;100658.25;8482196;33;20605;-72
2022/02/10 05:38:53;;;;;;;17.35;10.82;;;;;;;6.90;72.35;100662.63;8483691;33;22057;-75
2022/02/10 05:44:19;;;;;;;19.55;10.57;;;;;;;6.89;72.70;100670.75;8488013;33;20959;-74
2022/02/10 05:49:57;;;;;;;19.20;9.65;;;;;;;6.80;73.19;100670.34;8487487;33;20663;-75
2022/02/10 05:55:24;;;;;;;18.48;10.70;;;;;;;6.51;73.91;100668.53;8486532;33;20464;-74
2022/02/10 06:49:52;;;;;;;18.02;9.98;;;;;;;6.31;74.83;100670.59;8488598;33;20474;-75
2022/02/10 06:55:05;;;;;;;19.15;11.18;;;;;;;6.23;75.41;100658.66;8486252;33;20196;-73
2022/02/10 07:11:15;;;;;;;21.83;11.93;;;;;;;6.37;74.92;100651.53;8447723;33;20243;-73
2022/02/10 07:48:38;;;;;;;19.85;11.55;;;;;;;6.11;76.52;100644.19;8443032;33;20433;-75
2022/02/10 07:53:57;;;;;;;22.42;13.50;;;;;;;6.12;77.08;100645.94;8487492;33;20447;-75
2022/02/10 07:59:35;;;;;;;27.90;13.43;;;;;;;6.16;77.13;100637.66;8499927;33;20453;-75
2022/02/10 08:58:48;;;;;;;26.17;13.23;;;;;;;5.27;86.43;100671.16;8438885;33;20420;-74
2022/02/10 09:04:07;;;;;;;33.45;16.70;;;;;;;5.61;85.82;100664.81;8481957;33;20972;-74
2022/02/10 09:09:46;;;;;;;33.78;16.17;;;;;;;5.63;85.33;100662.91;8480597;33;20184;-73
2022/02/10 09:20:20;;;;;;;35.17;17.17;;;;;;;5.75;85.52;100664.03;8474721;33;20234;-75
2022/02/10 09:58:15;;;;;;;31.05;15.82;;;;;;;5.37;89.71;100693.66;8371393;33;20476;-77
2022/02/10 10:03:24;;;;;;;37.42;20.02;;;;;;;5.57;90.93;100697.91;8489195;33;20494;-76
2022/02/10 10:08:51;;;;;;;30.63;16.63;;;;;;;5.18;91.86;100707.09;8479806;33;20547;-76
2022/02/10 10:14:14;;;;;;;33.47;17.75;;;;;;;5.58;90.67;100707.63;8478744;33;20180;-76
2022/02/10 10:19:30;;;;;;;32.20;17.83;;;;;;;5.62;90.01;100714.53;8478988;33;21225;-77
2022/02/10 10:24:51;;;;;;;31.40;17.30;;;;;;;5.50;91.02;100725.84;8477906;33;20422;-77
2022/02/10 10:52:03;;;;;;;6.47;3.00;;;;;;;5.21;89.00;100762.91;8428261;33;21453;-77
2022/02/10 10:57:14;;;;;;;6.07;3.35;;;;;;;5.47;88.62;100763.31;8490908;33;20520;-76
2022/02/10 11:41:25;;;;;;;5.50;3.20;;;;;;;5.63;88.25;100750.03;8346812;33;20196;-75
2022/02/10 11:47:06;;;;;;;5.50;3.20;;;;;;;5.65;88.23;100748.13;8479996;33;21249;-75
2022/02/10 12:42:49;;;;;;;5.28;2.67;;;;;;;5.64;85.30;100741.06;8486268;33;21038;-76
2022/02/10 14:09:21;;;;;;;7.90;3.80;;;;;;;5.39;80.35;100737.06;8737045;33;20205;-76
2022/02/10 14:14:32;;;;;;;7.35;3.42;;;;;;;5.86;80.53;100741.59;8738271;33;20602;-74
2022/02/10 14:19:41;;;;;;;4.93;3.30;;;;;;;5.48;79.35;100747.22;8738366;33;20187;-75
2022/02/10 14:30:08;;;;;;;4.32;3.15;;;;;;;5.70;79.17;100746.06;8741339;33;20162;-75
2022/02/10 14:35:17;;;;;;;5.57;3.03;;;;;;;5.80;79.09;100759.75;8740555;33;20278;-74
2022/02/10 14:40:54;;;;;;;6.30;3.63;;;;;;;5.29;78.48;100770.47;8740623;33;20704;-74
2022/02/10 15:29:29;;;;;;;7.18;3.60;;;;;;;5.26;78.70;100821.25;8748216;33;20188;-75
2022/02/10 16:12:34;;;;;;;5.35;3.17;;;;;;;5.09;81.53;100815.94;8734742;32;20727;-76
2022/02/10 16:17:23;;;;;;;6.30;2.85;;;;;;;4.84;80.72;100818.00;8741331;33;20238;-76
2022/02/10 16:22:36;;;;;;;7.95;3.60;;;;;;;4.96;82.08;100811.19;8756564;33;20378;-76
2022/02/10 16:27:48;;;;;;;5.78;3.50;;;;;;;4.96;81.70;100805.00;8761883;33;20192;-76
2022/02/10 16:32:54;;;;;;;7.20;3.60;;;;;;;4.91;81.67;100804.38;8754822;32;20284;-73
2022/02/10 16:38:02;;;;;;;7.13;3.47;;;;;;;4.97;81.33;100802.28;8746180;32;20179;-75
2022/02/10 16:43:10;;;;;;;6.25;3.75;;;;;;;4.92;81.51;100798.97;8746211;32;20215;-75
2022/02/10 16:48:20;;;;;;;6.13;3.50;;;;;;;4.95;81.49;100798.81;8747028;33;20322;-77
2022/02/10 16:53:29;;;;;;;8.70;3.97;;;;;;;4.77;81.59;100797.09;8746507;33;20190;-75
2022/02/10 16:58:41;;;;;;;5.32;3.78;;;;;;;4.87;81.85;100809.00;8745827;32;21023;-75
2022/02/10 17:04:16;;;;;;;6.88;4.40;;;;;;;4.80;81.89;100800.47;8726224;33;20715;-74
2022/02/10 17:20:43;;;;;;;8.43;4.15;;;;;;;4.62;83.27;100810.22;8668840;33;20183;-75
2022/02/10 17:25:47;;;;;;;6.97;4.63;;;;;;;4.75;84.35;100820.28;8718085;33;20256;-75
2022/02/10 17:31:22;;;;;;;8.27;5.28;;;;;;;4.81;85.20;100822.63;8715852;33;20140;-75
2022/02/10 17:36:32;;;;;;;10.90;5.57;;;;;;;4.71;86.07;100824.00;8717255;33;21985;-75
2022/02/10 17:52:15;;;;;;;0.98;0.98;;;;;;;3.67;88.36;100846.59;8715905;33;20256;-75
2022/02/10 17:57:19;;;;;;;1.15;1.15;;;;;;;3.42;89.74;100851.28;8715236;33;20155;-74
2022/02/10 18:02:22;;;;;;;0.50;0.50;;;;;;;3.26;89.46;100861.72;8715576;33;20325;-75
2022/02/10 18:14:37;;;;;;;0.75;0.75;;;;;;;3.36;88.29;100862.19;8715539;33;20187;-77
2022/02/10 18:20:04;;;;;;;0.60;0.60;;;;;;;3.57;87.62;100847.13;8717092;33;20188;-74
2022/02/10 19:10:19;;;;;;;0.60;0.60;;;;;;;3.57;87.35;100847.13;8778093;33;20190;-76
2022/02/10 19:15:25;;;;;;;0.90;0.90;;;;;;;3.53;87.51;100840.19;8779900;33;20191;-76
2022/02/10 19:20:32;;;;;;;0.50;0.50;;;;;;;3.46;87.42;100848.44;8777968;33;21489;-76
2022/02/10 19:25:38;;;;;;;1.00;1.00;;;;;;;3.46;87.93;100847.59;8771691;33;20182;-77
2022/02/10 19:30:41;;;;;;;0.70;0.70;;;;;;;3.45;88.10;100853.81;8747397;33;20854;-76
2022/02/10 19:35:48;;;;;;;0.70;0.70;;;;;;;3.37;88.05;100850.63;8745146;32;20249;-75
2022/02/10 19:40:53;;;;;;;0.50;0.50;;;;;;;3.26;87.16;100859.06;8748035;33;20190;-77
2022/02/10 19:45:56;;;;;;;1.98;1.50;;;;;;;3.21;86.01;100856.63;8746290;32;20191;-76
2022/02/10 19:51:00;;;;;;;1.40;1.30;;;;;;;3.36;85.19;100857.75;8745707;33;20190;-75
2022/02/10 19:56:04;;;;;;;0.50;0.50;;;;;;;3.42;84.95;100862.78;8747494;32;20132;-76
2022/02/10 20:01:08;;;;;;;0.50;0.50;;;;;;;3.35;85.37;100853.38;8736648;32;20262;-76
2022/02/10 20:06:14;;;;;;;0.55;0.55;;;;;;;3.32;84.76;100858.81;8718946;33;20199;-75
2022/02/10 20:11:18;;;;;;;0.60;0.60;;;;;;;3.47;84.66;100851.97;8717865;33;20179;-76
2022/02/10 20:16:21;;;;;;;1.00;1.00;;;;;;;3.54;84.86;100857.84;8722654;33;20900;-75
2022/02/10 20:21:25;;;;;;;0.60;0.60;;;;;;;3.49;85.44;100864.25;8720801;33;20159;-75
2022/02/10 20:26:28;;;;;;;1.05;1.05;;;;;;;3.55;85.86;100872.88;8716951;33;20179;-76
2022/02/10 20:31:34;;;;;;;1.42;1.35;;;;;;;3.65;85.99;100867.09;8718622;33;20266;-76
2022/02/10 20:36:38;;;;;;;1.63;1.55;;;;;;;3.75;86.24;100871.97;8718383;33;20429;-75
2022/02/10 20:41:42;;;;;;;0.77;0.77;;;;;;;3.77;85.95;100867.47;8718363;33;21548;-76
2022/02/10 20:46:50;;;;;;;3.85;1.83;;;;;;;3.70;86.09;100875.72;8719269;33;21846;-75
2022/02/10 20:51:56;;;;;;;1.33;1.33;;;;;;;3.65;86.57;100875.06;8719056;33;20194;-76
2022/02/10 20:56:59;;;;;;;0.60;0.60;;;;;;;3.71;86.28;100866.81;8718397;33;20797;-76
2022/02/10 21:02:08;;;;;;;0.60;0.60;;;;;;;3.72;86.20;100851.72;8721829;33;20171;-76
2022/02/10 21:07:17;;;;;;;0.63;0.63;;;;;;;3.63;86.34;100863.63;8720258;33;20192;-76
2022/02/10 21:12:20;;;;;;;0.60;0.60;;;;;;;3.62;86.62;100872.56;8721768;33;20190;-74
2022/02/10 21:17:26;;;;;;;1.65;1.52;;;;;;;3.66;86.53;100871.47;8722049;33;20144;-75
2022/02/10 21:22:36;;;;;;;0.80;0.80;;;;;;;3.55;86.94;100870.22;8722398;33;21060;-75
2022/02/10 21:27:44;;;;;;;0.60;0.60;;;;;;;3.65;86.67;100874.22;8718377;33;20501;-76
2022/02/10 21:32:49;;;;;;;0.52;0.52;;;;;;;3.61;86.88;100864.63;8716822;33;20867;-75
2022/02/10 21:37:58;;;;;;;1.17;1.05;;;;;;;3.51;87.43;100872.13;8722516;33;20164;-74
2022/02/10 22:10:27;;;;;;;1.38;1.38;;;;;;;3.47;86.15;100883.84;8752573;32;20202;-76
2022/02/10 22:20:58;;;;;;;0.93;0.93;;;;;;;3.46;85.07;100882.13;8900403;32;20142;-75
2022/02/10 22:26:06;;;;;;;1.95;1.95;;;;;;;3.53;84.58;100867.63;8899609;32;20162;-76
2022/02/10 22:31:26;;;;;;;0.75;0.75;;;;;;;3.30;83.66;100865.97;8899540;32;21229;-76
2022/02/10 22:36:30;;;;;;;0.75;0.75;;;;;;;3.15;83.19;100870.13;8909522;32;20168;-76
2022/02/10 22:41:34;;;;;;;0.50;0.50;;;;;;;3.32;83.27;100873.84;8909133;32;20165;-76
2022/02/10 22:46:37;;;;;;;0.50;0.50;;;;;;;3.17;82.51;100880.69;8905088;32;20522;-76
2022/02/10 22:51:41;;;;;;;0.63;0.63;;;;;;;3.11;82.10;100881.81;8901573;32;20479;-76
2022/02/10 22:56:47;;;;;;;1.85;1.38;;;;;;;3.04;82.05;100888.31;8900671;32;20219;-76
2022/02/10 23:01:50;;;;;;;0.60;0.60;;;;;;;3.18;81.75;100888.63;8900940;32;20271;-76
2022/02/10 23:06:56;;;;;;;2.15;2.05;;;;;;;3.22;82.20;100884.03;8900042;32;20267;-76
2022/02/10 23:12:01;;;;;;;0.70;0.70;;;;;;;3.16;83.10;100879.84;8900511;32;20441;-76
2022/02/10 23:17:04;;;;;;;4.40;2.05;;;;;;;3.27;83.34;100888.22;8899132;32;20134;-75
2022/02/10 23:22:07;;;;;;;1.48;1.48;;;;;;;3.24;84.04;100890.16;8898990;32;20171;-75
2022/02/10 23:27:12;;;;;;;0.93;0.93;;;;;;;3.34;83.86;100877.31;8897481;32;20248;-76
2022/02/10 23:32:15;;;;;;;0.75;0.75;;;;;;;3.39;83.92;100889.47;8898478;32;20191;-76
2022/02/10 23:37:18;;;;;;;1.38;1.33;;;;;;;3.39;84.17;100883.31;8899116;32;20146;-76
2022/02/10 23:42:29;;;;;;;1.08;1.08;;;;;;;3.47;84.10;100883.84;8871576;32;20181;-76
2022/02/10 23:47:32;;;;;;;0.60;0.60;;;;;;;3.41;84.46;100881.44;8898696;32;20189;-76
2022/02/10 23:52:35;;;;;;;0.70;0.70;;;;;;;3.40;84.59;100879.72;8872440;32;20231;-76
2022/02/10 23:57:49;;;;;;;2.15;2.05;;;;;;;3.36;84.67;100870.16;8897155;32;20178;-74
